Time,TemperatureC,DewpointC,PressurehPa,WindDirection,WindDirectionDegrees,WindSpeedKMH,WindSpeedGustKMH,Humidity,HourlyPrecipMM,Conditions,Clouds,dailyrainMM,SolarRadiationWatts/m^2,UVIndex,SoftwareType,DateUTC
2023-02-02 00:03:46,1.6,3.5,1012.5,West,268,5.2,7.4,88,0.0,,,0.0,0,0,n/a,2023-02-01T23:03:46Z
2023-02-02 00:09:46,1.5,3.5,1012.3,WNW,287,4.3,5.8,87.6,0.0,,,0.0,2,0,n/a,2023-02-01T23:09:46Z
2023-02-02 00:12:42,1.6,3.6,1012.3,West,270,1.3,1.3,88,0.0,,,0.0,0,0,n/a,2023-02-01T23:12:42Z
2023-02-02 00:18:46,1.5,3.5,1012.3,West,262,1.2,1.6,87.6,0.0,,,0.0,0,0,n/a,2023-02-01T23:18:46Z
2023-02-02 00:21:46,1.4,3.6,1012.5,WNW,292,0.3,0.5,87.9,0.0,,,0.0,2,0,n/a,2023-02-01T23:21:46Z
2023-02-02 00:27:42,1.4,3.5,1012.5,NW,315,0,0,87.5,0.0,,,0.0,2,0,n/a,2023-02-01T23:27:42Z
2023-02-02 00:33:47,1.4,3.5,1012.8,NW,315,0,0,87.6,0.0,,,0.0,0,0,n/a,2023-02-01T23:33:47Z
2023-02-02 00:39:47,1.3,3.5,1012.8,WNW,292,0,0,87.6,0.0,,,0.0,2,0,n/a,2023-02-01T23:39:47Z
2023-02-02 00:42:43,1.3,3.6,1012.8,WNW,292,0,0,87.7,0.0,,,0.0,0,0,n/a,2023-02-01T23:42:43Z
2023-02-02 00:48:46,1.4,3.6,1012.8,West,275,3,5.2,88,0.0,,,0.0,2,0,n/a,2023-02-01T23:48:46Z
2023-02-02 00:54:47,1.4,3.6,1012.5,NW,305,2.4,3.3,87.8,0.0,,,0.0,0,0,n/a,2023-02-01T23:54:47Z
2023-02-02 00:57:43,1.3,3.5,1012.3,North,0,0,0,87.9,0.0,,,0.0,0,0,n/a,2023-02-01T23:57:43Z
2023-02-02 01:03:47,1.1,3.4,1012.3,NW,321,1.1,1.9,87.4,0.0,,,0.0,2,0,n/a,2023-02-02T00:03:47Z
2023-02-02 01:09:47,1,3.3,1012.3,WNW,292,1.9,2.2,87.4,0.0,,,0.0,2,0,n/a,2023-02-02T00:09:47Z
2023-02-02 01:12:43,1,3.3,1012.3,West,270,0.6,0.6,87.9,0.0,,,0.0,0,0,n/a,2023-02-02T00:12:43Z
2023-02-02 01:18:47,1.1,3.3,1012.3,WSW,237,0.9,1.9,87.8,0.0,,,0.0,2,0,n/a,2023-02-02T00:18:47Z
2023-02-02 01:24:46,1.1,3.3,1012.3,WSW,249,1.9,2.6,87.9,0.0,,,0.0,2,0,n/a,2023-02-02T00:24:46Z
2023-02-02 01:27:46,1.3,3.3,1012.3,NW,315,2.9,3.3,87.9,0.0,,,0.0,2,0,n/a,2023-02-02T00:27:46Z
2023-02-02 01:33:46,1,3.3,1012.3,North,0,0.9,2.6,87.9,0.0,,,0.0,2,0,n/a,2023-02-02T00:33:46Z
2023-02-02 01:39:46,1.1,3.3,1012.3,WNW,284,1.9,2.7,88,0.0,,,0.0,2,0,n/a,2023-02-02T00:39:46Z
2023-02-02 01:42:46,1.2,3.3,1012.3,WNW,292,1.5,2,88.3,0.0,,,0.0,2,0,n/a,2023-02-02T00:42:46Z
2023-02-02 01:48:46,1.3,3.4,1012.3,West,280,5.2,6.6,88.4,0.0,,,0.0,2,0,n/a,2023-02-02T00:48:46Z
2023-02-02 01:54:46,1.4,3.5,1012.5,West,275,5.7,6.4,89,0.0,,,0.0,2,0,n/a,2023-02-02T00:54:46Z
2023-02-02 01:57:46,1.4,3.5,1012.5,West,281,5.7,5.8,89,0.0,,,0.0,2,0,n/a,2023-02-02T00:57:46Z
2023-02-02 02:03:46,1.4,3.5,1012.8,West,270,2.3,2.6,88.6,0.0,,,0.0,2,0,n/a,2023-02-02T01:03:46Z
2023-02-02 02:09:46,1.4,3.5,1012.8,West,270,4.7,5.8,89,0.0,,,0.0,2,0,n/a,2023-02-02T01:09:46Z
2023-02-02 02:12:46,1.4,3.4,1012.8,NW,318,5.8,6.3,89,0.0,,,0.0,2,0,n/a,2023-02-02T01:12:46Z
2023-02-02 02:18:46,1.3,3.5,1012.5,NW,310,4.7,5.9,88.7,0.0,,,0.0,2,0,n/a,2023-02-02T01:18:46Z
2023-02-02 02:24:47,1.4,3.6,1012.8,WNW,293,5.3,6.6,89.2,0.0,,,0.0,2,0,n/a,2023-02-02T01:24:47Z
2023-02-02 02:27:47,1.4,3.5,1012.5,WNW,291,4.3,4.9,89.1,0.0,,,0.0,2,0,n/a,2023-02-02T01:27:47Z
2023-02-02 02:33:47,1.5,3.4,1012.5,West,264,6.1,8.5,88.7,0.0,,,0.0,2,0,n/a,2023-02-02T01:33:47Z
2023-02-02 02:39:43,1.5,3.4,1012.5,West,260,5.9,7.4,89,0.0,,,0.0,2,0,n/a,2023-02-02T01:39:43Z
2023-02-02 02:42:47,1.6,3.5,1012.5,West,270,10.7,11.1,89.4,0.0,,,0.0,2,0,n/a,2023-02-02T01:42:47Z
2023-02-02 02:48:47,1.7,3.5,1012.8,West,271,13.1,14.9,89.2,0.0,,,0.0,2,0,n/a,2023-02-02T01:48:47Z
2023-02-02 02:54:47,1.6,3.5,1012.8,WNW,298,7.4,8.8,89.1,0.0,,,0.0,0,0,n/a,2023-02-02T01:54:47Z
2023-02-02 02:57:43,1.6,3.6,1012.5,SW,225,6.2,6.2,89.6,0.0,,,0.0,2,0,n/a,2023-02-02T01:57:43Z
2023-02-02 03:03:47,1.6,3.5,1012.8,West,278,5.6,7.5,89,0.0,,,0.0,2,0,n/a,2023-02-02T02:03:47Z
2023-02-02 03:09:47,1.5,3.5,1012.8,NW,318,4.9,6.8,88.8,0.0,,,0.0,2,0,n/a,2023-02-02T02:09:47Z
2023-02-02 03:12:47,1.6,3.5,1012.8,NW,310,2.7,3,88.7,0.0,,,0.0,2,0,n/a,2023-02-02T02:12:47Z
2023-02-02 03:18:47,1.6,3.6,1012.8,NW,306,3.7,4.4,88.9,0.0,,,0.0,0,0,n/a,2023-02-02T02:18:47Z
2023-02-02 03:24:47,1.7,3.5,1012.8,West,278,6,7.5,88.8,0.0,,,0.0,2,0,n/a,2023-02-02T02:24:47Z
2023-02-02 03:27:47,1.7,3.5,1012.8,NW,306,5.1,6.4,89,0.0,,,0.0,2,0,n/a,2023-02-02T02:27:47Z
2023-02-02 03:33:43,1.6,3.5,1012.8,West,270,1.2,1.9,88.7,0.0,,,0.0,2,0,n/a,2023-02-02T02:33:43Z
2023-02-02 03:39:46,1.6,3.5,1012.8,WSW,258,4.1,6.6,88.6,0.0,,,0.0,2,0,n/a,2023-02-02T02:39:46Z
2023-02-02 03:42:46,1.6,3.5,1012.8,NW,315,0.8,1.7,88.3,0.0,,,0.0,2,0,n/a,2023-02-02T02:42:46Z
2023-02-02 03:48:42,1.6,3.6,1013.1,West,270,3.9,6.5,88.7,0.0,,,0.0,2,0,n/a,2023-02-02T02:48:42Z
2023-02-02 03:54:46,1.6,3.5,1013.1,WNW,299,2.4,4.5,88.6,0.0,,,0.0,2,0,n/a,2023-02-02T02:54:46Z
2023-02-02 03:57:46,1.6,3.5,1013.1,NW,315,1.8,2,88.5,0.0,,,0.0,2,0,n/a,2023-02-02T02:57:46Z
2023-02-02 04:03:46,1.7,3.5,1013.3,NW,308,6.5,7.7,88.7,0.0,,,0.0,2,0,n/a,2023-02-02T03:03:46Z
2023-02-02 04:09:46,1.6,3.5,1013.3,NW,325,2.1,3.9,88.6,0.0,,,0.0,2,0,n/a,2023-02-02T03:09:46Z
2023-02-02 04:12:46,1.6,3.4,1013.1,West,280,2.7,3,88.2,0.0,,,0.0,2,0,n/a,2023-02-02T03:12:46Z
2023-02-02 04:18:46,1.4,3.4,1013.3,West,270,1.9,3.9,88,0.0,,,0.0,2,0,n/a,2023-02-02T03:18:46Z
2023-02-02 04:24:47,1.2,3.4,1013.3,NNW,340,4.1,5.4,88,0.0,,,0.0,2,0,n/a,2023-02-02T03:24:47Z
2023-02-02 04:27:47,1.3,3.5,1013.3,NW,321,3.9,4.4,88,0.0,,,0.0,0,0,n/a,2023-02-02T03:27:47Z
2023-02-02 04:33:47,1.3,3.3,1013.3,NNW,335,6.4,9.9,87.9,0.0,,,0.0,2,0,n/a,2023-02-02T03:33:47Z
2023-02-02 04:39:47,1.4,3.4,1013.3,NW,315,3.9,5.6,88.2,0.0,,,0.0,2,0,n/a,2023-02-02T03:39:47Z
2023-02-02 04:42:47,1.4,3.4,1013.3,SW,236,4.4,4.5,88.2,0.0,,,0.0,2,0,n/a,2023-02-02T03:42:47Z
2023-02-02 04:48:46,1.3,3.4,1013.3,WSW,249,6.3,6.8,88.4,0.0,,,0.0,2,0,n/a,2023-02-02T03:48:46Z
2023-02-02 04:54:46,1.3,3.4,1013.3,SW,225,4.8,5.2,88.3,0.0,,,0.0,2,0,n/a,2023-02-02T03:54:46Z
2023-02-02 04:57:46,1.3,3.4,1013.3,West,270,2.9,3.3,88.2,0.0,,,0.0,2,0,n/a,2023-02-02T03:57:46Z
2023-02-02 05:03:46,1.3,3.4,1013.3,WSW,254,3.3,7.1,88.3,0.0,,,0.0,0,0,n/a,2023-02-02T04:03:46Z
2023-02-02 05:09:46,1.3,3.4,1013.6,WSW,240,4.8,5.2,88.5,0.0,,,0.0,0,0,n/a,2023-02-02T04:09:46Z
2023-02-02 05:12:46,1.3,3.4,1013.6,NW,315,3.8,3.9,88.4,0.0,,,0.0,0,0,n/a,2023-02-02T04:12:46Z
2023-02-02 05:18:46,1.3,3.3,1013.9,SW,235,4.6,5.8,88.1,0.0,,,0.0,2,0,n/a,2023-02-02T04:18:46Z
2023-02-02 05:24:46,1.3,3.3,1013.9,WSW,246,5.7,6.5,88.5,0.0,,,0.0,2,0,n/a,2023-02-02T04:24:46Z
2023-02-02 05:27:42,1.3,3.3,1013.9,West,270,5.9,5.9,88.5,0.0,,,0.0,2,0,n/a,2023-02-02T04:27:42Z
2023-02-02 05:33:46,1.2,3.3,1013.9,SW,229,7.9,9,88.5,0.0,,,0.0,0,0,n/a,2023-02-02T04:33:46Z
2023-02-02 05:39:46,1.1,3.3,1013.9,SW,225,5.2,5.9,88.2,0.0,,,0.0,2,0,n/a,2023-02-02T04:39:46Z
2023-02-02 05:42:42,1.1,3.3,1013.9,WSW,247,5.8,5.8,88.8,0.0,,,0.0,2,0,n/a,2023-02-02T04:42:42Z
2023-02-02 05:48:46,1.1,3.3,1013.9,SW,229,6,8.5,88.2,0.0,,,0.0,2,0,n/a,2023-02-02T04:48:46Z
2023-02-02 05:54:46,1.2,3.2,1014.1,WSW,255,4.5,5.1,87.9,0.0,,,0.0,2,0,n/a,2023-02-02T04:54:46Z
2023-02-02 05:57:46,1.2,3.2,1014.1,West,270,5.4,5.8,88.5,0.0,,,0.0,2,0,n/a,2023-02-02T04:57:46Z
2023-02-02 06:03:46,1.2,3.3,1014.1,SW,230,3.6,5.2,88.4,0.0,,,0.0,2,0,n/a,2023-02-02T05:03:46Z
2023-02-02 06:09:46,1.2,3.3,1014.4,West,270,2.3,3.8,88.2,0.0,,,0.0,2,0,n/a,2023-02-02T05:09:46Z
2023-02-02 06:12:46,1.2,3.3,1014.4,West,260,2.3,2.7,88.3,0.0,,,0.0,2,0,n/a,2023-02-02T05:12:46Z
2023-02-02 06:18:42,1.2,3.3,1014.4,West,265,1,1.3,88.3,0.0,,,0.0,0,0,n/a,2023-02-02T05:18:42Z
2023-02-02 06:24:47,1.1,3.2,1014.4,SW,228,0.9,1.7,88.3,0.0,,,0.0,2,0,n/a,2023-02-02T05:24:47Z
2023-02-02 06:27:46,1.1,3.2,1014.4,SW,235,2.9,3.2,87.9,0.0,,,0.0,2,0,n/a,2023-02-02T05:27:46Z
2023-02-02 06:33:46,1.2,3.2,1014.4,SW,230,1.8,2.6,88.2,0.0,,,0.0,2,0,n/a,2023-02-02T05:33:46Z
2023-02-02 06:39:46,1.2,3.3,1014.4,West,270,0.4,0.7,88.2,0.0,,,0.0,2,0,n/a,2023-02-02T05:39:46Z
2023-02-02 06:42:46,1.3,3.3,1014.4,West,270,1.8,2,88.5,0.0,,,0.0,0,0,n/a,2023-02-02T05:42:46Z
2023-02-02 06:48:46,1.3,3.2,1014.4,West,261,1.3,2.6,87.7,0.0,,,0.0,2,0,n/a,2023-02-02T05:48:46Z
2023-02-02 06:54:42,1.3,3.3,1014.6,WSW,255,2.4,2.6,88.5,0.0,,,0.0,2,0,n/a,2023-02-02T05:54:42Z
2023-02-02 06:57:46,1.3,3.2,1014.6,WNW,282,3.6,3.9,88.2,0.0,,,0.0,0,0,n/a,2023-02-02T05:57:46Z
2023-02-02 07:03:46,1.4,3.3,1014.6,West,274,4.1,6.6,88.3,0.0,,,0.0,2,0,n/a,2023-02-02T06:03:46Z
2023-02-02 07:09:42,1.4,3.4,1014.6,NW,322,1.5,1.9,88.7,0.0,,,0.0,0,0,n/a,2023-02-02T06:09:42Z
2023-02-02 07:12:42,1.3,3.3,1014.6,NNW,337,1.9,1.9,88,0.0,,,0.0,2,0,n/a,2023-02-02T06:12:42Z
2023-02-02 07:18:46,1.4,3.3,1014.6,WNW,291,1,2.1,88.5,0.0,,,0.0,2,0,n/a,2023-02-02T06:18:46Z
2023-02-02 07:24:46,1.3,3.3,1014.6,NW,310,2.6,3.7,88.7,0.0,,,0.0,2,0,n/a,2023-02-02T06:24:46Z
2023-02-02 07:27:46,1.3,3.3,1014.6,WNW,292,0,0,88.8,0.0,,,0.0,2,0,n/a,2023-02-02T06:27:46Z
2023-02-02 07:33:46,1.5,3.4,1014.9,NW,316,2.4,3.9,88.9,0.0,,,0.0,2,0,n/a,2023-02-02T06:33:46Z
2023-02-02 07:39:46,1.5,3.4,1014.9,WNW,298,4,5.3,88.7,0.0,,,0.0,2,0,n/a,2023-02-02T06:39:46Z
2023-02-02 07:42:43,1.5,3.3,1014.6,NW,315,3.9,3.9,88.8,0.0,,,0.0,2,0,n/a,2023-02-02T06:42:43Z
2023-02-02 07:48:46,1.4,3.3,1014.9,NNW,344,0.5,1.3,88.9,0.0,,,0.0,2,0,n/a,2023-02-02T06:48:46Z
2023-02-02 07:54:46,1.5,3.4,1014.9,NW,320,0.6,1.3,88.8,0.0,,,0.0,4,0,n/a,2023-02-02T06:54:46Z
2023-02-02 07:57:43,1.5,3.5,1014.9,West,270,1.3,1.3,89.2,0.0,,,0.0,4,0,n/a,2023-02-02T06:57:43Z
2023-02-02 08:03:46,1.5,3.4,1014.9,NW,308,2.1,3.9,88.6,0.0,,,0.0,4,0,n/a,2023-02-02T07:03:46Z
2023-02-02 08:09:46,1.5,3.4,1014.9,WNW,292,1.5,3.3,88.9,0.0,,,0.0,4,0,n/a,2023-02-02T07:09:46Z
2023-02-02 08:12:46,1.5,3.4,1014.9,West,270,2.1,2.2,88.4,0.0,,,0.0,4,0,n/a,2023-02-02T07:12:46Z
2023-02-02 08:18:46,1.5,3.5,1014.9,WNW,292,0.8,1.3,89.1,0.0,,,0.0,6,0,n/a,2023-02-02T07:18:46Z
2023-02-02 08:24:46,1.5,3.5,1014.9,NNE,16,1.2,2.2,89.2,0.0,,,0.0,6,0,n/a,2023-02-02T07:24:46Z
2023-02-02 08:27:46,1.5,3.6,1014.9,North,0,0,0,89,0.0,,,0.0,8,0,n/a,2023-02-02T07:27:46Z
2023-02-02 08:33:42,1.8,3.6,1015.2,West,268,8.1,9.9,89.8,0.0,,,0.0,6,0,n/a,2023-02-02T07:33:42Z
2023-02-02 08:39:46,1.9,3.7,1015.2,NNW,330,4.5,5.8,89.8,0.0,,,0.0,8,0,n/a,2023-02-02T07:39:46Z
2023-02-02 08:42:46,1.9,3.7,1015.4,NW,320,4.7,5.2,89.7,0.0,,,0.0,10,0,n/a,2023-02-02T07:42:46Z
2023-02-02 08:48:46,2,3.7,1015.2,West,278,11,16.1,90.3,0.0,,,0.0,12,0,n/a,2023-02-02T07:48:46Z
2023-02-02 08:54:42,2,3.7,1015.2,West,281,6.5,8.4,89.9,0.0,,,0.0,14,0,n/a,2023-02-02T07:54:42Z
2023-02-02 08:57:46,2,3.7,1015.2,West,260,9.9,11.6,89.4,0.0,,,0.0,18,0,n/a,2023-02-02T07:57:46Z
2023-02-02 09:03:46,2,3.8,1015.4,West,262,7.4,8.5,89.9,0.0,,,0.0,18,0,n/a,2023-02-02T08:03:46Z
2023-02-02 09:09:46,2,3.8,1015.4,NNW,342,6.4,7.6,89.5,0.0,,,0.0,26,0,n/a,2023-02-02T08:09:46Z
2023-02-02 09:12:42,2.1,3.8,1015.4,WNW,292,1.3,1.3,89.7,0.0,,,0.0,28,0,n/a,2023-02-02T08:12:42Z
2023-02-02 09:18:46,2.1,3.8,1015.4,WNW,290,4.6,5.9,89.3,0.0,,,0.0,32,0,n/a,2023-02-02T08:18:46Z
2023-02-02 09:24:42,2.1,3.9,1015.4,NW,310,2.6,3.9,89.5,0.0,,,0.0,36,0,n/a,2023-02-02T08:24:42Z
2023-02-02 09:27:46,2.3,3.9,1015.7,West,270,2.4,2.6,89.5,0.0,,,0.0,34,0,n/a,2023-02-02T08:27:46Z
2023-02-02 09:33:46,2.3,3.9,1015.7,WSW,258,1.9,3.9,89.2,0.0,,,0.0,30,0,n/a,2023-02-02T08:33:46Z
2023-02-02 09:39:46,2.2,3.9,1016.0,West,267,2.5,3.9,89.3,0.0,,,0.0,26,0,n/a,2023-02-02T08:39:46Z
2023-02-02 09:42:42,2.2,4,1015.7,WNW,292,6.5,6.6,89.4,0.0,,,0.0,22,0,n/a,2023-02-02T08:42:42Z
2023-02-02 09:48:46,2.2,3.9,1016.0,WSW,244,2.5,3.8,89.4,0.0,,,0.0,24,0,n/a,2023-02-02T08:48:46Z
2023-02-02 09:54:46,2.2,4,1016.0,West,259,2.1,2.8,89.1,0.0,,,0.0,24,0,n/a,2023-02-02T08:54:46Z
2023-02-02 09:57:46,2.2,4.1,1016.0,WNW,301,4.7,4.8,89.5,0.0,,,0.0,24,0,n/a,2023-02-02T08:57:46Z
2023-02-02 10:03:46,2.2,4.1,1016.0,SW,230,4.6,5.6,89.4,0.0,,,0.0,30,0,n/a,2023-02-02T09:03:46Z
2023-02-02 10:09:43,2.2,4,1016.0,WSW,246,4.2,6.1,89.5,0.0,,,0.0,32,0,n/a,2023-02-02T09:09:43Z
2023-02-02 10:12:46,2.3,4.1,1016.0,West,270,0.9,1.1,89.6,0.0,,,0.0,36,0,n/a,2023-02-02T09:12:46Z
2023-02-02 10:18:46,2.3,4,1016.0,WNW,289,1.9,2.2,89,0.0,,,0.0,36,0,n/a,2023-02-02T09:18:46Z
2023-02-02 10:24:42,2.4,4.1,1016.2,SW,225,1.5,4.5,89.4,0.0,,,0.0,34,0,n/a,2023-02-02T09:24:42Z
2023-02-02 10:27:46,2.3,4.1,1016.5,West,259,2.7,2.8,89.1,0.0,,,0.0,30,0,n/a,2023-02-02T09:27:46Z
2023-02-02 10:33:46,2.3,4.2,1016.2,SW,232,2.9,3.9,89.3,0.0,,,0.0,28,0,n/a,2023-02-02T09:33:46Z
2023-02-02 10:39:42,2.2,4.1,1016.2,SW,225,5.3,6.4,89.2,0.0,,,0.0,28,0,n/a,2023-02-02T09:39:42Z
2023-02-02 10:42:46,2.2,4.1,1016.5,SW,225,2.4,2.6,88.7,0.0,,,0.0,28,0,n/a,2023-02-02T09:42:46Z
2023-02-02 10:48:46,2.1,4,1016.5,SW,225,4.2,4.6,89,0.0,,,0.0,28,0,n/a,2023-02-02T09:48:46Z
2023-02-02 10:54:46,2.1,4.1,1016.5,SW,236,3.1,4.5,89.1,0.0,,,0.5,30,0,n/a,2023-02-02T09:54:46Z
2023-02-02 10:57:46,1.9,3.9,1016.5,SW,225,4.4,4.9,88.9,0.0,,,0.5,30,0,n/a,2023-02-02T09:57:46Z
2023-02-02 11:03:46,1.9,3.9,1016.5,West,262,1.5,2.2,88.8,0.0,,,0.5,30,0,n/a,2023-02-02T10:03:46Z
2023-02-02 11:09:46,1.9,3.9,1016.5,West,275,3.1,4,88.9,0.0,,,0.5,30,0,n/a,2023-02-02T10:09:46Z
2023-02-02 11:12:47,1.9,3.8,1016.7,WNW,299,1.9,2.1,88.8,0.0,,,0.5,32,0,n/a,2023-02-02T10:12:47Z
2023-02-02 11:18:46,1.9,3.9,1016.7,West,270,3.1,3.3,88.4,0.0,,,0.5,36,0,n/a,2023-02-02T10:18:46Z
2023-02-02 11:24:46,1.9,3.7,1016.5,SW,235,3.5,4.2,88.1,0.0,,,0.5,42,0,n/a,2023-02-02T10:24:46Z
2023-02-02 11:27:47,1.9,3.8,1016.5,West,270,3.2,3.4,88.8,0.0,,,0.5,46,0,n/a,2023-02-02T10:27:47Z
2023-02-02 11:33:46,1.8,3.8,1016.7,SW,236,2.6,2.7,88.7,0.0,,,1.0,50,0,n/a,2023-02-02T10:33:46Z
2023-02-02 11:39:46,1.8,3.7,1016.7,West,264,4.8,5.3,88.7,0.0,,,1.0,58,0,n/a,2023-02-02T10:39:46Z
2023-02-02 11:42:46,1.9,3.8,1016.7,SW,225,4.3,4.5,88.5,0.0,,,1.0,52,0,n/a,2023-02-02T10:42:46Z
2023-02-02 11:48:43,1.6,3.8,1016.7,West,273,3.7,4.3,88.7,0.0,,,1.0,52,0,n/a,2023-02-02T10:48:43Z
2023-02-02 11:54:47,1.7,3.8,1016.7,WSW,243,3.3,5.1,88.5,0.0,,,1.0,58,0,n/a,2023-02-02T10:54:47Z
2023-02-02 11:57:46,1.7,3.7,1016.7,SW,225,2,2.1,88.4,0.0,,,1.0,56,0,n/a,2023-02-02T10:57:46Z
2023-02-02 12:03:42,1.6,3.6,1016.7,SW,225,1,2.6,88.1,0.0,,,1.0,54,0,n/a,2023-02-02T11:03:42Z
2023-02-02 12:09:46,1.7,3.7,1016.7,SW,225,1.3,1.9,88.6,0.0,,,1.0,54,0,n/a,2023-02-02T11:09:46Z
2023-02-02 12:12:46,1.8,3.6,1016.7,SW,225,0.9,1.3,88.1,0.0,,,1.0,62,0,n/a,2023-02-02T11:12:46Z
2023-02-02 12:18:46,1.8,3.8,1016.7,West,264,1.7,2.2,88.6,0.0,,,1.0,62,0,n/a,2023-02-02T11:18:46Z
2023-02-02 12:24:46,1.8,3.8,1017.0,WNW,290,2.5,3.8,88.7,0.0,,,1.0,60,0,n/a,2023-02-02T11:24:46Z
2023-02-02 12:27:46,1.8,3.7,1017.0,SW,225,1.4,1.6,88.5,0.0,,,1.0,56,0,n/a,2023-02-02T11:27:46Z
2023-02-02 12:33:46,1.7,3.7,1017.0,SW,225,1.3,1.6,88.5,0.0,,,1.0,60,0,n/a,2023-02-02T11:33:46Z
2023-02-02 12:39:46,1.8,3.8,1017.0,SW,225,2.4,3.2,88.7,0.0,,,1.5,60,0,n/a,2023-02-02T11:39:46Z
2023-02-02 12:42:46,1.8,3.8,1016.7,NW,326,2.7,3.3,88.5,0.0,,,1.5,60,0,n/a,2023-02-02T11:42:46Z